sensor_id;sensor_type;location;lat;lon;timestamp;pressure;altitude;pressure_sealevel;temperature;humidity
35694;BME280;21812;55.536;37.664;2023-04-08T00:00:48;100885.03;;;8.22;36.64
35694;BME280;21812;55.536;37.664;2023-04-08T00:03:13;100886.56;;;8.25;36.91
35694;BME280;21812;55.536;37.664;2023-04-08T00:05:39;100891.50;;;8.19;37.00
35694;BME280;21812;55.536;37.664;2023-04-08T00:08:05;100894.38;;;8.36;36.29
35694;BME280;21812;55.536;37.664;2023-04-08T00:10:31;100891.25;;;8.50;35.80
35694;BME280;21812;55.536;37.664;2023-04-08T00:12:57;100893.91;;;8.50;36.17
35694;BME280;21812;55.536;37.664;2023-04-08T00:15:22;100899.25;;;8.40;36.07
35694;BME280;21812;55.536;37.664;2023-04-08T00:17:50;100881.13;;;8.16;37.08
35694;BME280;21812;55.536;37.664;2023-04-08T00:20:17;100893.66;;;8.34;43.20
35694;BME280;21812;55.536;37.664;2023-04-08T00:22:43;100893.38;;;8.37;37.72
35694;BME280;21812;55.536;37.664;2023-04-08T00:25:09;100890.63;;;8.29;36.59
35694;BME280;21812;55.536;37.664;2023-04-08T00:27:34;100887.56;;;8.23;36.39
35694;BME280;21812;55.536;37.664;2023-04-08T00:30:00;100884.47;;;8.18;39.02
35694;BME280;21812;55.536;37.664;2023-04-08T00:32:26;100892.41;;;8.38;36.55
35694;BME280;21812;55.536;37.664;2023-04-08T00:34:52;100889.81;;;8.18;36.52
35694;BME280;21812;55.536;37.664;2023-04-08T00:37:18;100887.44;;;8.15;37.65
35694;BME280;21812;55.536;37.664;2023-04-08T00:39:43;100892.41;;;8.38;37.64
35694;BME280;21812;55.536;37.664;2023-04-08T00:42:09;100894.25;;;8.28;36.53
35694;BME280;21812;55.536;37.664;2023-04-08T00:44:35;100888.97;;;8.18;37.53
35694;BME280;21812;55.536;37.664;2023-04-08T00:47:02;100877.53;;;8.08;36.71
35694;BME280;21812;55.536;37.664;2023-04-08T00:49:30;100861.03;;;8.04;36.42
35694;BME280;21812;55.536;37.664;2023-04-08T00:51:56;100891.22;;;8.22;36.10
35694;BME280;21812;55.536;37.664;2023-04-08T00:54:21;100895.75;;;8.02;36.19
35694;BME280;21812;55.536;37.664;2023-04-08T00:56:47;100895.66;;;7.85;38.26
35694;BME280;21812;55.536;37.664;2023-04-08T00:59:13;100891.03;;;7.87;37.67
35694;BME280;21812;55.536;37.664;2023-04-08T01:01:49;100896.09;;;7.70;37.57
35694;BME280;21812;55.536;37.664;2023-04-08T01:07:00;100891.94;;;7.09;38.78
35694;BME280;21812;55.536;37.664;2023-04-08T01:09:31;100865.41;;;6.49;39.88
35694;BME280;21812;55.536;37.664;2023-04-08T01:11:58;100891.09;;;6.39;40.69
35694;BME280;21812;55.536;37.664;2023-04-08T01:14:27;100902.66;;;6.07;41.23
35694;BME280;21812;55.536;37.664;2023-04-08T01:16:54;100899.84;;;5.78;41.91
35694;BME280;21812;55.536;37.664;2023-04-08T01:19:27;100898.72;;;5.59;42.41
35694;BME280;21812;55.536;37.664;2023-04-08T01:22:00;100864.88;;;5.63;41.89
35694;BME280;21812;55.536;37.664;2023-04-08T01:24:30;100903.91;;;5.82;43.12
35694;BME280;21812;55.536;37.664;2023-04-08T01:27:00;100899.13;;;5.76;42.63
35694;BME280;21812;55.536;37.664;2023-04-08T01:29:28;100868.69;;;5.49;42.25
35694;BME280;21812;55.536;37.664;2023-04-08T01:31:55;100902.41;;;5.47;42.52
35694;BME280;21812;55.536;37.664;2023-04-08T01:34:23;100897.16;;;5.36;43.23
35694;BME280;21812;55.536;37.664;2023-04-08T01:36:50;100851.66;;;5.09;43.10
35694;BME280;21812;55.536;37.664;2023-04-08T01:39:18;100870.91;;;5.12;42.98
35694;BME280;21812;55.536;37.664;2023-04-08T01:41:46;100898.56;;;5.19;43.29
35694;BME280;21812;55.536;37.664;2023-04-08T01:44:13;100901.25;;;5.07;44.11
35694;BME280;21812;55.536;37.664;2023-04-08T01:46:41;100886.03;;;4.88;44.33
35694;BME280;21812;55.536;37.664;2023-04-08T01:49:08;100910.25;;;5.16;44.92
35694;BME280;21812;55.536;37.664;2023-04-08T01:51:36;100894.13;;;5.61;43.65
35694;BME280;21812;55.536;37.664;2023-04-08T01:54:02;100899.13;;;5.55;43.34
35694;BME280;21812;55.536;37.664;2023-04-08T01:56:30;100888.00;;;5.61;43.58
35694;BME280;21812;55.536;37.664;2023-04-08T01:58:59;100869.97;;;5.76;43.95
35694;BME280;21812;55.536;37.664;2023-04-08T02:01:27;100910.75;;;6.26;43.18
35694;BME280;21812;55.536;37.664;2023-04-08T02:03:54;100906.81;;;6.61;41.85
35694;BME280;21812;55.536;37.664;2023-04-08T02:06:24;100913.38;;;6.67;41.83
35694;BME280;21812;55.536;37.664;2023-04-08T02:08:50;100903.44;;;6.59;40.95
35694;BME280;21812;55.536;37.664;2023-04-08T02:11:16;100909.44;;;6.52;41.03
35694;BME280;21812;55.536;37.664;2023-04-08T02:13:42;100900.91;;;6.17;41.58
35694;BME280;21812;55.536;37.664;2023-04-08T02:16:53;100909.66;;;6.08;41.82
35694;BME280;21812;55.536;37.664;2023-04-08T02:19:24;100904.03;;;5.80;42.89
35694;BME280;21812;55.536;37.664;2023-04-08T02:22:04;100875.41;;;5.53;42.63
35694;BME280;21812;55.536;37.664;2023-04-08T02:24:34;100909.38;;;5.69;44.56
35694;BME280;21812;55.536;37.664;2023-04-08T02:27:02;100899.84;;;5.78;43.04
35694;BME280;21812;55.536;37.664;2023-04-08T02:29:30;100915.78;;;5.87;43.36
35694;BME280;21812;55.536;37.664;2023-04-08T02:31:57;100914.97;;;6.08;42.37
35694;BME280;21812;55.536;37.664;2023-04-08T02:34:23;100909.91;;;6.36;42.02
35694;BME280;21812;55.536;37.664;2023-04-08T02:36:50;100911.97;;;6.53;41.76
35694;BME280;21812;55.536;37.664;2023-04-08T02:39:16;100911.34;;;6.40;41.16
35694;BME280;21812;55.536;37.664;2023-04-08T02:41:42;100919.41;;;6.29;41.07
35694;BME280;21812;55.536;37.664;2023-04-08T02:44:08;100921.50;;;6.04;41.56
35694;BME280;21812;55.536;37.664;2023-04-08T02:46:38;100920.38;;;5.64;42.27
35694;BME280;21812;55.536;37.664;2023-04-08T02:49:04;100921.13;;;5.34;43.87
35694;BME280;21812;55.536;37.664;2023-04-08T02:51:30;100928.59;;;5.29;43.61
35694;BME280;21812;55.536;37.664;2023-04-08T02:53:56;100927.81;;;5.49;44.28
35694;BME280;21812;55.536;37.664;2023-04-08T02:56:22;100922.22;;;5.85;43.61
35694;BME280;21812;55.536;37.664;2023-04-08T02:58:47;100921.50;;;6.04;43.23
35694;BME280;21812;55.536;37.664;2023-04-08T03:01:13;100927.81;;;5.92;43.19
35694;BME280;21812;55.536;37.664;2023-04-08T03:03:38;100928.22;;;5.66;44.27
35694;BME280;21812;55.536;37.664;2023-04-08T03:06:04;100929.56;;;5.60;44.59
35694;BME280;21812;55.536;37.664;2023-04-08T03:08:30;100932.94;;;5.83;43.64
35694;BME280;21812;55.536;37.664;2023-04-08T03:10:55;100928.59;;;6.24;43.06
35694;BME280;21812;55.536;37.664;2023-04-08T03:13:21;100925.00;;;6.35;42.67
35694;BME280;21812;55.536;37.664;2023-04-08T03:15:46;100924.66;;;6.50;42.16
35694;BME280;21812;55.536;37.664;2023-04-08T03:18:12;100926.91;;;6.64;41.85
35694;BME280;21812;55.536;37.664;2023-04-08T03:20:38;100930.88;;;6.79;41.46
35694;BME280;21812;55.536;37.664;2023-04-08T03:23:04;100922.66;;;6.92;41.21
35694;BME280;21812;55.536;37.664;2023-04-08T03:25:29;100931.91;;;6.98;41.68
35694;BME280;21812;55.536;37.664;2023-04-08T03:27:57;100893.31;;;6.84;41.00
35694;BME280;21812;55.536;37.664;2023-04-08T03:30:22;100935.44;;;6.58;41.34
35694;BME280;21812;55.536;37.664;2023-04-08T03:32:48;100933.38;;;6.31;42.27
35694;BME280;21812;55.536;37.664;2023-04-08T03:35:14;100933.78;;;6.36;42.82
35694;BME280;21812;55.536;37.664;2023-04-08T03:37:39;100927.88;;;6.53;42.51
35694;BME280;21812;55.536;37.664;2023-04-08T03:40:06;100939.41;;;6.42;42.70
35694;BME280;21812;55.536;37.664;2023-04-08T03:42:31;100935.91;;;6.32;43.03
35694;BME280;21812;55.536;37.664;2023-04-08T03:44:58;100941.50;;;6.39;42.72
35694;BME280;21812;55.536;37.664;2023-04-08T03:47:23;100935.53;;;6.46;42.89
35694;BME280;21812;55.536;37.664;2023-04-08T03:49:52;100897.03;;;6.62;42.00
35694;BME280;21812;55.536;37.664;2023-04-08T03:52:17;100933.94;;;6.75;42.22
35694;BME280;21812;55.536;37.664;2023-04-08T03:54:43;100936.84;;;6.72;41.88
35694;BME280;21812;55.536;37.664;2023-04-08T03:57:08;100936.41;;;7.07;41.39
35694;BME280;21812;55.536;37.664;2023-04-08T03:59:36;100934.19;;;7.22;41.31
35694;BME280;21812;55.536;37.664;2023-04-08T04:02:04;100939.03;;;6.88;41.14
35694;BME280;21812;55.536;37.664;2023-04-08T04:04:30;100940.38;;;6.72;41.43
35694;BME280;21812;55.536;37.664;2023-04-08T04:06:55;100943.16;;;6.71;41.35
35694;BME280;21812;55.536;37.664;2023-04-08T04:09:22;100944.72;;;6.83;41.63
35694;BME280;21812;55.536;37.664;2023-04-08T04:11:47;100953.38;;;6.85;42.03
35694;BME280;21812;55.536;37.664;2023-04-08T04:14:13;100944.78;;;7.12;41.01
35694;BME280;21812;55.536;37.664;2023-04-08T04:16:39;100944.25;;;7.48;40.41
35694;BME280;21812;55.536;37.664;2023-04-08T04:19:05;100943.25;;;7.68;39.78
35694;BME280;21812;55.536;37.664;2023-04-08T04:21:30;100943.38;;;7.76;39.28
35694;BME280;21812;55.536;37.664;2023-04-08T04:23:56;100944.66;;;7.72;39.50
35694;BME280;21812;55.536;37.664;2023-04-08T04:26:21;100944.53;;;7.44;39.99
35694;BME280;21812;55.536;37.664;2023-04-08T04:28:47;100944.53;;;7.44;40.15
35694;BME280;21812;55.536;37.664;2023-04-08T04:31:20;100947.44;;;7.80;40.28
35694;BME280;21812;55.536;37.664;2023-04-08T04:33:47;100944.66;;;7.72;39.61
35694;BME280;21812;55.536;37.664;2023-04-08T04:36:14;100947.59;;;7.59;40.37
35694;BME280;21812;55.536;37.664;2023-04-08T04:38:40;100950.41;;;7.77;40.13
35694;BME280;21812;55.536;37.664;2023-04-08T04:41:07;100943.13;;;7.60;39.88
35694;BME280;21812;55.536;37.664;2023-04-08T04:43:33;100945.34;;;7.74;39.86
35694;BME280;21812;55.536;37.664;2023-04-08T04:45:58;100946.47;;;7.81;39.66
35694;BME280;21812;55.536;37.664;2023-04-08T04:48:25;100942.84;;;7.82;39.77
35694;BME280;21812;55.536;37.664;2023-04-08T04:50:58;100951.88;;;8.09;39.87
35694;BME280;21812;55.536;37.664;2023-04-08T04:53:24;100946.03;;;8.43;39.83
35694;BME280;21812;55.536;37.664;2023-04-08T04:55:50;100948.06;;;8.21;39.41
35694;BME280;21812;55.536;37.664;2023-04-08T04:58:16;100949.84;;;8.31;39.66
35694;BME280;21812;55.536;37.664;2023-04-08T05:00:43;100949.13;;;8.48;39.67
35694;BME280;21812;55.536;37.664;2023-04-08T05:03:09;100952.19;;;8.53;44.75
35694;BME280;21812;55.536;37.664;2023-04-08T05:05:34;100955.53;;;8.83;39.45
35694;BME280;21812;55.536;37.664;2023-04-08T05:08:00;100959.47;;;9.07;39.00
35694;BME280;21812;55.536;37.664;2023-04-08T05:10:25;100961.63;;;9.21;38.90
35694;BME280;21812;55.536;37.664;2023-04-08T05:12:51;100958.84;;;9.41;40.50
35694;BME280;21812;55.536;37.664;2023-04-08T05:15:17;100959.50;;;9.61;38.30
35694;BME280;21812;55.536;37.664;2023-04-08T05:17:42;100957.59;;;9.35;37.95
35694;BME280;21812;55.536;37.664;2023-04-08T05:20:08;100956.91;;;9.15;39.85
35694;BME280;21812;55.536;37.664;2023-04-08T05:22:34;100965.84;;;8.96;39.22
35694;BME280;21812;55.536;37.664;2023-04-08T05:25:00;100973.50;;;9.09;41.47
35694;BME280;21812;55.536;37.664;2023-04-08T05:27:25;100969.13;;;9.08;39.42
35694;BME280;21812;55.536;37.664;2023-04-08T05:29:51;100974.94;;;9.03;43.85
35694;BME280;21812;55.536;37.664;2023-04-08T05:32:17;100981.88;;;9.14;41.36
35694;BME280;21812;55.536;37.664;2023-04-08T05:34:43;100970.94;;;8.89;40.69
35694;BME280;21812;55.536;37.664;2023-04-08T05:37:09;100975.09;;;8.74;40.04
35694;BME280;21812;55.536;37.664;2023-04-08T05:39:35;100974.88;;;9.13;42.27
35694;BME280;21812;55.536;37.664;2023-04-08T05:42:01;100969.78;;;9.73;39.29
35694;BME280;21812;55.536;37.664;2023-04-08T05:44:27;100970.06;;;10.14;42.42
35694;BME280;21812;55.536;37.664;2023-04-08T05:46:53;100972.31;;;10.01;38.04
35694;BME280;21812;55.536;37.664;2023-04-08T05:49:19;100977.31;;;9.96;37.40
35694;BME280;21812;55.536;37.664;2023-04-08T05:51:45;100966.28;;;10.17;39.05
35694;BME280;21812;55.536;37.664;2023-04-08T05:54:11;100966.91;;;9.93;37.37
35694;BME280;21812;55.536;37.664;2023-04-08T05:56:37;100973.41;;;9.90;37.90
35694;BME280;21812;55.536;37.664;2023-04-08T05:59:02;100970.66;;;9.82;40.45
35694;BME280;21812;55.536;37.664;2023-04-08T06:01:28;100969.91;;;10.16;39.39
35694;BME280;21812;55.536;37.664;2023-04-08T06:03:54;100961.38;;;10.12;39.93
35694;BME280;21812;55.536;37.664;2023-04-08T06:06:23;100967.19;;;10.08;38.00
35694;BME280;21812;55.536;37.664;2023-04-08T06:08:49;100962.00;;;10.06;37.70
35694;BME280;21812;55.536;37.664;2023-04-08T06:11:15;100958.56;;;10.14;39.36
35694;BME280;21812;55.536;37.664;2023-04-08T06:13:41;100956.28;;;10.45;39.58
35694;BME280;21812;55.536;37.664;2023-04-08T06:16:14;100939.75;;;10.42;36.96
35694;BME280;21812;55.536;37.664;2023-04-08T06:18:41;100959.94;;;10.44;37.65
35694;BME280;21812;55.536;37.664;2023-04-08T06:21:07;100962.81;;;10.25;41.00
35694;BME280;21812;55.536;37.664;2023-04-08T06:23:34;100964.72;;;10.67;42.03
35694;BME280;21812;55.536;37.664;2023-04-08T06:25:59;100957.69;;;11.08;39.85
35694;BME280;21812;55.536;37.664;2023-04-08T06:28:25;100958.53;;;11.09;37.20
35694;BME280;21812;55.536;37.664;2023-04-08T06:30:50;100964.53;;;11.03;39.80
35694;BME280;21812;55.536;37.664;2023-04-08T06:33:16;100952.88;;;11.28;38.17
35694;BME280;21812;55.536;37.664;2023-04-08T06:35:42;100955.25;;;11.40;44.90
35694;BME280;21812;55.536;37.664;2023-04-08T06:38:07;100960.78;;;11.63;41.95
35694;BME280;21812;55.536;37.664;2023-04-08T06:40:33;100956.94;;;11.65;38.85
35694;BME280;21812;55.536;37.664;2023-04-08T06:42:58;100956.78;;;12.08;45.31
35694;BME280;21812;55.536;37.664;2023-04-08T06:45:37;100959.63;;;11.73;39.47
35694;BME280;21812;55.536;37.664;2023-04-08T06:48:03;100957.09;;;11.39;37.62
35694;BME280;21812;55.536;37.664;2023-04-08T06:50:29;100959.09;;;11.37;39.71
35694;BME280;21812;55.536;37.664;2023-04-08T06:52:54;100953.72;;;11.29;36.68
35694;BME280;21812;55.536;37.664;2023-04-08T06:55:20;100959.91;;;11.29;38.12
35694;BME280;21812;55.536;37.664;2023-04-08T06:57:46;100956.16;;;10.98;37.19
35694;BME280;21812;55.536;37.664;2023-04-08T07:00:12;100958.94;;;11.39;40.65
35694;BME280;21812;55.536;37.664;2023-04-08T07:02:37;100950.75;;;11.57;40.81
35694;BME280;21812;55.536;37.664;2023-04-08T07:05:03;100952.78;;;11.71;39.18
35694;BME280;21812;55.536;37.664;2023-04-08T07:07:29;100947.91;;;11.50;36.45
35694;BME280;21812;55.536;37.664;2023-04-08T07:09:55;100950.41;;;11.43;37.63
35694;BME280;21812;55.536;37.664;2023-04-08T07:12:21;100957.91;;;11.48;37.18
35694;BME280;21812;55.536;37.664;2023-04-08T07:14:46;100952.41;;;11.41;36.74
35694;BME280;21812;55.536;37.664;2023-04-08T07:17:12;100951.06;;;11.45;39.65
35694;BME280;21812;55.536;37.664;2023-04-08T07:19:38;100953.56;;;11.55;38.52
35694;BME280;21812;55.536;37.664;2023-04-08T07:22:03;100948.22;;;11.55;39.74
35694;BME280;21812;55.536;37.664;2023-04-08T07:24:29;100956.25;;;11.55;37.24
35694;BME280;21812;55.536;37.664;2023-04-08T07:26:55;100946.72;;;11.61;41.23
35694;BME280;21812;55.536;37.664;2023-04-08T07:29:21;100948.41;;;11.95;40.13
35694;BME280;21812;55.536;37.664;2023-04-08T07:31:47;100945.50;;;12.29;43.70
35694;BME280;21812;55.536;37.664;2023-04-08T07:34:12;100943.88;;;12.67;39.82
35694;BME280;21812;55.536;37.664;2023-04-08T07:36:38;100945.00;;;12.81;40.14
35694;BME280;21812;55.536;37.664;2023-04-08T07:39:05;100948.53;;;12.74;35.72
35694;BME280;21812;55.536;37.664;2023-04-08T07:41:30;100938.97;;;12.79;36.65
35694;BME280;21812;55.536;37.664;2023-04-08T07:43:56;100941.19;;;12.76;38.03
35694;BME280;21812;55.536;37.664;2023-04-08T07:46:22;100938.03;;;12.64;37.27
35694;BME280;21812;55.536;37.664;2023-04-08T07:48:47;100940.44;;;12.42;35.81
35694;BME280;21812;55.536;37.664;2023-04-08T07:51:13;100944.00;;;12.35;35.86
35694;BME280;21812;55.536;37.664;2023-04-08T07:53:39;100938.00;;;12.24;37.48
35694;BME280;21812;55.536;37.664;2023-04-08T07:56:12;100948.19;;;12.29;36.77
35694;BME280;21812;55.536;37.664;2023-04-08T07:58:38;100940.78;;;12.39;37.38
35694;BME280;21812;55.536;37.664;2023-04-08T08:01:22;100923.69;;;12.88;41.13
35694;BME280;21812;55.536;37.664;2023-04-08T08:03:49;100942.97;;;13.84;39.51
35694;BME280;21812;55.536;37.664;2023-04-08T08:06:15;100937.56;;;14.22;37.85
35694;BME280;21812;55.536;37.664;2023-04-08T08:08:40;100931.09;;;14.01;34.11
35694;BME280;21812;55.536;37.664;2023-04-08T08:11:06;100940.25;;;14.07;41.09
35694;BME280;21812;55.536;37.664;2023-04-08T08:13:32;100929.44;;;14.30;41.87
35694;BME280;21812;55.536;37.664;2023-04-08T08:15:58;100929.63;;;14.28;34.85
35694;BME280;21812;55.536;37.664;2023-04-08T08:18:24;100930.00;;;14.70;39.64
35694;BME280;21812;55.536;37.664;2023-04-08T08:20:49;100922.47;;;14.80;37.31
35694;BME280;21812;55.536;37.664;2023-04-08T08:23:15;100913.44;;;14.88;35.40
35694;BME280;21812;55.536;37.664;2023-04-08T08:25:41;100921.13;;;15.06;34.68
35694;BME280;21812;55.536;37.664;2023-04-08T08:28:06;100913.81;;;15.21;35.22
35694;BME280;21812;55.536;37.664;2023-04-08T08:30:32;100915.09;;;15.47;34.21
35694;BME280;21812;55.536;37.664;2023-04-08T08:32:58;100908.94;;;15.53;31.98
35694;BME280;21812;55.536;37.664;2023-04-08T08:35:25;100905.63;;;15.08;29.96
35694;BME280;21812;55.536;37.664;2023-04-08T08:37:50;100907.28;;;14.58;33.70
35694;BME280;21812;55.536;37.664;2023-04-08T08:40:16;100909.78;;;14.44;36.26
35694;BME280;21812;55.536;37.664;2023-04-08T08:42:49;100883.31;;;14.93;37.92
35694;BME280;21812;55.536;37.664;2023-04-08T08:45:18;100880.13;;;15.25;37.21
35694;BME280;21812;55.536;37.664;2023-04-08T08:47:44;100894.00;;;16.00;38.94
35694;BME280;21812;55.536;37.664;2023-04-08T08:50:10;100896.00;;;16.68;38.78
35694;BME280;21812;55.536;37.664;2023-04-08T08:52:35;100899.69;;;17.02;39.21
35694;BME280;21812;55.536;37.664;2023-04-08T08:55:01;100890.41;;;17.45;42.66
35694;BME280;21812;55.536;37.664;2023-04-08T08:57:27;100889.59;;;17.57;35.63
35694;BME280;21812;55.536;37.664;2023-04-08T08:59:53;100897.06;;;17.62;39.31
35694;BME280;21812;55.536;37.664;2023-04-08T09:02:28;100861.97;;;17.55;31.56
35694;BME280;21812;55.536;37.664;2023-04-08T09:05:01;100895.38;;;17.68;31.73
35694;BME280;21812;55.536;37.664;2023-04-08T09:07:30;100893.94;;;17.72;32.40
35694;BME280;21812;55.536;37.664;2023-04-08T09:09:59;100886.44;;;17.81;31.71
35694;BME280;21812;55.536;37.664;2023-04-08T09:12:26;100890.00;;;17.88;29.22
35694;BME280;21812;55.536;37.664;2023-04-08T09:15:03;100886.66;;;17.66;30.39
35694;BME280;21812;55.536;37.664;2023-04-08T09:17:38;100895.81;;;17.98;32.44
35694;BME280;21812;55.536;37.664;2023-04-08T09:20:11;100886.56;;;18.32;30.90
35694;BME280;21812;55.536;37.664;2023-04-08T09:25:26;100878.25;;;18.27;28.78
35694;BME280;21812;55.536;37.664;2023-04-08T09:27:52;100890.75;;;18.28;29.19
35694;BME280;21812;55.536;37.664;2023-04-08T09:30:20;100883.31;;;18.04;29.01
35694;BME280;21812;55.536;37.664;2023-04-08T09:32:50;100888.31;;;17.67;28.40
35694;BME280;21812;55.536;37.664;2023-04-08T09:35:20;100890.22;;;17.86;31.78
35694;BME280;21812;55.536;37.664;2023-04-08T09:37:47;100881.16;;;18.26;31.05
35694;BME280;21812;55.536;37.664;2023-04-08T09:40:13;100889.56;;;18.11;28.46
35694;BME280;21812;55.536;37.664;2023-04-08T09:42:47;100883.28;;;18.17;29.02
35694;BME280;21812;55.536;37.664;2023-04-08T09:45:17;100878.66;;;18.38;27.66
35694;BME280;21812;55.536;37.664;2023-04-08T09:48:07;100871.88;;;18.67;28.74
35694;BME280;21812;55.536;37.664;2023-04-08T09:50:40;100863.56;;;18.68;28.28
35694;BME280;21812;55.536;37.664;2023-04-08T09:53:13;100856.31;;;18.62;28.45
35694;BME280;21812;55.536;37.664;2023-04-08T09:55:47;100868.91;;;18.75;29.07
35694;BME280;21812;55.536;37.664;2023-04-08T09:58:15;100859.84;;;19.01;29.51
35694;BME280;21812;55.536;37.664;2023-04-08T10:00:50;100852.31;;;19.35;28.73
35694;BME280;21812;55.536;37.664;2023-04-08T10:05:53;100850.19;;;19.87;27.52
35694;BME280;21812;55.536;37.664;2023-04-08T10:08:22;100823.13;;;20.06;27.27
35694;BME280;21812;55.536;37.664;2023-04-08T10:10:49;100852.09;;;20.42;26.55
35694;BME280;21812;55.536;37.664;2023-04-08T10:13:16;100852.16;;;20.73;25.89
35694;BME280;21812;55.536;37.664;2023-04-08T10:15:41;100867.31;;;20.92;25.47
35694;BME280;21812;55.536;37.664;2023-04-08T10:25:29;100843.34;;;21.31;24.88
35694;BME280;21812;55.536;37.664;2023-04-08T10:35:58;100833.41;;;22.19;25.06
35694;BME280;21812;55.536;37.664;2023-04-08T10:38:24;100812.81;;;22.23;24.18
35694;BME280;21812;55.536;37.664;2023-04-08T10:40:50;100833.34;;;22.55;24.17
35694;BME280;21812;55.536;37.664;2023-04-08T10:43:17;100831.31;;;22.79;24.00
35694;BME280;21812;55.536;37.664;2023-04-08T10:45:43;100826.38;;;23.05;23.85
35694;BME280;21812;55.536;37.664;2023-04-08T10:48:21;100795.59;;;23.21;23.19
35694;BME280;21812;55.536;37.664;2023-04-08T10:51:00;100819.69;;;23.63;23.14
35694;BME280;21812;55.536;37.664;2023-04-08T10:53:28;100813.03;;;23.93;22.82
35694;BME280;21812;55.536;37.664;2023-04-08T10:56:03;100812.34;;;24.25;22.82
35694;BME280;21812;55.536;37.664;2023-04-08T10:58:29;100803.66;;;24.28;22.59
35694;BME280;21812;55.536;37.664;2023-04-08T11:01:02;100807.13;;;24.45;22.87
35694;BME280;21812;55.536;37.664;2023-04-08T11:03:27;100799.63;;;24.57;22.70
35694;BME280;21812;55.536;37.664;2023-04-08T11:05:56;100775.34;;;24.88;22.35
35694;BME280;21812;55.536;37.664;2023-04-08T11:08:27;100792.72;;;25.42;21.79
35694;BME280;21812;55.536;37.664;2023-04-08T11:10:53;100796.19;;;25.69;21.22
35694;BME280;21812;55.536;37.664;2023-04-08T11:13:19;100783.41;;;25.85;20.49
35694;BME280;21812;55.536;37.664;2023-04-08T11:15:45;100770.69;;;26.11;20.41
35694;BME280;21812;55.536;37.664;2023-04-08T11:18:11;100782.75;;;26.10;19.97
35694;BME280;21812;55.536;37.664;2023-04-08T11:20:37;100779.22;;;26.20;20.04
35694;BME280;21812;55.536;37.664;2023-04-08T11:23:12;100773.69;;;25.57;19.68
35694;BME280;21812;55.536;37.664;2023-04-08T11:25:40;100784.72;;;25.72;20.58
35694;BME280;21812;55.536;37.664;2023-04-08T11:28:07;100768.53;;;26.29;20.38
35694;BME280;21812;55.536;37.664;2023-04-08T11:30:34;100778.66;;;26.23;20.07
35694;BME280;21812;55.536;37.664;2023-04-08T11:33:00;100772.94;;;26.30;19.96
35694;BME280;21812;55.536;37.664;2023-04-08T11:35:29;100768.09;;;26.73;19.75
35694;BME280;21812;55.536;37.664;2023-04-08T11:37:56;100777.44;;;26.87;19.69
35694;BME280;21812;55.536;37.664;2023-04-08T11:40:22;100770.78;;;26.37;18.35
35694;BME280;21812;55.536;37.664;2023-04-08T11:42:50;100757.66;;;26.55;19.43
35694;BME280;21812;55.536;37.664;2023-04-08T11:45:20;100747.78;;;26.53;19.68
35694;BME280;21812;55.536;37.664;2023-04-08T11:47:47;100756.59;;;27.07;19.42
35694;BME280;21812;55.536;37.664;2023-04-08T11:50:22;100752.50;;;27.40;19.60
35694;BME280;21812;55.536;37.664;2023-04-08T11:52:50;100738.72;;;27.56;18.81
35694;BME280;21812;55.536;37.664;2023-04-08T11:57:52;100746.72;;;27.42;18.57
35694;BME280;21812;55.536;37.664;2023-04-08T12:00:18;100742.06;;;27.47;17.95
35694;BME280;21812;55.536;37.664;2023-04-08T12:02:45;100740.63;;;27.60;18.84
35694;BME280;21812;55.536;37.664;2023-04-08T12:05:14;100741.69;;;27.75;18.59
35694;BME280;21812;55.536;37.664;2023-04-08T12:07:43;100744.94;;;27.92;18.10
35694;BME280;21812;55.536;37.664;2023-04-08T12:10:10;100741.03;;;28.03;17.99
35694;BME280;21812;55.536;37.664;2023-04-08T12:12:38;100737.25;;;27.89;17.40
35694;BME280;21812;55.536;37.664;2023-04-08T12:15:04;100740.78;;;27.95;17.99
35694;BME280;21812;55.536;37.664;2023-04-08T12:17:31;100724.88;;;28.41;17.73
35694;BME280;21812;55.536;37.664;2023-04-08T12:19:56;100727.19;;;28.69;17.27
35694;BME280;21812;55.536;37.664;2023-04-08T12:22:22;100732.28;;;28.85;16.84
35694;BME280;21812;55.536;37.664;2023-04-08T12:24:48;100735.78;;;28.62;17.42
35694;BME280;21812;55.536;37.664;2023-04-08T12:27:13;100726.38;;;28.68;16.88
35694;BME280;21812;55.536;37.664;2023-04-08T12:29:39;100729.03;;;28.78;16.88
35694;BME280;21812;55.536;37.664;2023-04-08T12:32:05;100722.09;;;28.52;16.39
35694;BME280;21812;55.536;37.664;2023-04-08T12:34:31;100725.47;;;28.78;16.83
35694;BME280;21812;55.536;37.664;2023-04-08T12:36:57;100725.72;;;29.11;16.14
35694;BME280;21812;55.536;37.664;2023-04-08T12:39:23;100716.81;;;29.24;16.03
35694;BME280;21812;55.536;37.664;2023-04-08T12:41:49;100711.97;;;28.42;15.17
35694;BME280;21812;55.536;37.664;2023-04-08T12:44:14;100710.09;;;28.37;16.39
35694;BME280;21812;55.536;37.664;2023-04-08T12:46:40;100716.00;;;28.94;16.48
35694;BME280;21812;55.536;37.664;2023-04-08T12:49:05;100708.38;;;29.15;16.11
35694;BME280;21812;55.536;37.664;2023-04-08T12:51:31;100710.28;;;29.44;15.63
35694;BME280;21812;55.536;37.664;2023-04-08T12:53:57;100706.69;;;29.68;15.60
35694;BME280;21812;55.536;37.664;2023-04-08T12:56:24;100708.03;;;30.13;15.20
35694;BME280;21812;55.536;37.664;2023-04-08T12:58:50;100702.69;;;30.41;14.62
35694;BME280;21812;55.536;37.664;2023-04-08T13:01:15;100696.19;;;30.84;14.68
35694;BME280;21812;55.536;37.664;2023-04-08T13:03:41;100692.97;;;30.95;14.25
35694;BME280;21812;55.536;37.664;2023-04-08T13:06:07;100688.31;;;30.96;14.11
35694;BME280;21812;55.536;37.664;2023-04-08T13:08:33;100693.84;;;31.10;14.50
35694;BME280;21812;55.536;37.664;2023-04-08T13:10:59;100688.63;;;30.75;13.43